sensor_id;sensor_type;location;lat;lon;timestamp;P1;durP1;ratioP1;P2;durP2;ratioP2
75386;SDS011;63966;47.914;22.266;2023-04-03T00:01:11;9.15;;;3.80;;
75386;SDS011;63966;47.914;22.266;2023-04-03T00:04:14;6.40;;;3.22;;
75386;SDS011;63966;47.914;22.266;2023-04-03T00:07:18;8.10;;;3.87;;
75386;SDS011;63966;47.914;22.266;2023-04-03T00:10:21;6.40;;;2.85;;
75386;SDS011;63966;47.914;22.266;2023-04-03T00:13:25;6.80;;;3.65;;
75386;SDS011;63966;47.914;22.266;2023-04-03T00:16:28;5.75;;;2.60;;
75386;SDS011;63966;47.914;22.266;2023-04-03T00:19:32;6.57;;;3.00;;
75386;SDS011;63966;47.914;22.266;2023-04-03T00:22:35;6.07;;;2.77;;
75386;SDS011;63966;47.914;22.266;2023-04-03T00:25:39;5.53;;;2.40;;
75386;SDS011;63966;47.914;22.266;2023-04-03T00:28:42;6.80;;;2.90;;
75386;SDS011;63966;47.914;22.266;2023-04-03T00:31:45;6.53;;;2.70;;
75386;SDS011;63966;47.914;22.266;2023-04-03T00:34:49;6.15;;;2.88;;
75386;SDS011;63966;47.914;22.266;2023-04-03T00:37:52;5.70;;;2.63;;
75386;SDS011;63966;47.914;22.266;2023-04-03T00:40:57;6.10;;;2.53;;
75386;SDS011;63966;47.914;22.266;2023-04-03T00:44:00;5.53;;;2.05;;
75386;SDS011;63966;47.914;22.266;2023-04-03T00:47:20;6.07;;;2.70;;
75386;SDS011;63966;47.914;22.266;2023-04-03T00:50:23;5.25;;;2.28;;
75386;SDS011;63966;47.914;22.266;2023-04-03T00:53:30;5.57;;;2.53;;
75386;SDS011;63966;47.914;22.266;2023-04-03T00:56:51;5.05;;;2.33;;
75386;SDS011;63966;47.914;22.266;2023-04-03T01:00:00;7.35;;;2.75;;
75386;SDS011;63966;47.914;22.266;2023-04-03T01:03:09;4.60;;;2.20;;
75386;SDS011;63966;47.914;22.266;2023-04-03T01:06:14;5.35;;;2.47;;
75386;SDS011;63966;47.914;22.266;2023-04-03T01:09:23;5.17;;;2.63;;
75386;SDS011;63966;47.914;22.266;2023-04-03T01:12:28;5.75;;;2.55;;
75386;SDS011;63966;47.914;22.266;2023-04-03T01:15:34;5.32;;;2.72;;
75386;SDS011;63966;47.914;22.266;2023-04-03T01:18:38;6.28;;;2.67;;
75386;SDS011;63966;47.914;22.266;2023-04-03T01:25:17;6.60;;;2.13;;
75386;SDS011;63966;47.914;22.266;2023-04-03T01:34:56;5.30;;;2.40;;
75386;SDS011;63966;47.914;22.266;2023-04-03T01:37:59;4.65;;;1.92;;
75386;SDS011;63966;47.914;22.266;2023-04-03T01:41:03;5.20;;;2.30;;
75386;SDS011;63966;47.914;22.266;2023-04-03T01:44:06;5.70;;;2.30;;
75386;SDS011;63966;47.914;22.266;2023-04-03T01:47:10;5.05;;;2.30;;
75386;SDS011;63966;47.914;22.266;2023-04-03T01:50:15;4.28;;;1.85;;
75386;SDS011;63966;47.914;22.266;2023-04-03T01:53:19;4.65;;;2.22;;
75386;SDS011;63966;47.914;22.266;2023-04-03T01:56:23;4.90;;;2.10;;
75386;SDS011;63966;47.914;22.266;2023-04-03T01:59:27;3.78;;;1.80;;
75386;SDS011;63966;47.914;22.266;2023-04-03T02:02:31;4.07;;;1.98;;
75386;SDS011;63966;47.914;22.266;2023-04-03T02:05:34;4.80;;;2.00;;
75386;SDS011;63966;47.914;22.266;2023-04-03T02:08:38;5.05;;;2.05;;
75386;SDS011;63966;47.914;22.266;2023-04-03T02:11:42;4.87;;;2.07;;
75386;SDS011;63966;47.914;22.266;2023-04-03T02:14:46;4.55;;;2.10;;
75386;SDS011;63966;47.914;22.266;2023-04-03T02:17:49;4.82;;;1.80;;
75386;SDS011;63966;47.914;22.266;2023-04-03T02:20:53;6.88;;;1.95;;
75386;SDS011;63966;47.914;22.266;2023-04-03T02:23:56;4.47;;;1.80;;
75386;SDS011;63966;47.914;22.266;2023-04-03T02:27:00;5.20;;;2.07;;
75386;SDS011;63966;47.914;22.266;2023-04-03T02:30:04;3.47;;;1.65;;
75386;SDS011;63966;47.914;22.266;2023-04-03T02:33:08;4.30;;;1.88;;
75386;SDS011;63966;47.914;22.266;2023-04-03T02:36:12;3.47;;;1.65;;
75386;SDS011;63966;47.914;22.266;2023-04-03T02:39:19;4.60;;;2.13;;
75386;SDS011;63966;47.914;22.266;2023-04-03T02:42:22;3.93;;;1.80;;
75386;SDS011;63966;47.914;22.266;2023-04-03T02:45:26;3.97;;;1.67;;
75386;SDS011;63966;47.914;22.266;2023-04-03T02:48:30;4.80;;;2.00;;
75386;SDS011;63966;47.914;22.266;2023-04-03T02:51:35;4.18;;;2.00;;
75386;SDS011;63966;47.914;22.266;2023-04-03T02:54:39;4.50;;;1.90;;
75386;SDS011;63966;47.914;22.266;2023-04-03T02:57:44;4.10;;;1.43;;
75386;SDS011;63966;47.914;22.266;2023-04-03T03:00:48;3.88;;;1.73;;
75386;SDS011;63966;47.914;22.266;2023-04-03T03:03:52;3.80;;;1.67;;
75386;SDS011;63966;47.914;22.266;2023-04-03T03:06:55;4.80;;;1.92;;
75386;SDS011;63966;47.914;22.266;2023-04-03T03:09:58;4.18;;;1.70;;
75386;SDS011;63966;47.914;22.266;2023-04-03T03:13:02;4.43;;;1.80;;
75386;SDS011;63966;47.914;22.266;2023-04-03T03:16:05;4.10;;;1.90;;
75386;SDS011;63966;47.914;22.266;2023-04-03T03:19:09;4.32;;;1.70;;
75386;SDS011;63966;47.914;22.266;2023-04-03T03:22:13;3.90;;;1.70;;
75386;SDS011;63966;47.914;22.266;2023-04-03T03:25:16;3.70;;;1.63;;
75386;SDS011;63966;47.914;22.266;2023-04-03T03:28:20;3.77;;;1.67;;
75386;SDS011;63966;47.914;22.266;2023-04-03T03:31:24;4.05;;;1.63;;
75386;SDS011;63966;47.914;22.266;2023-04-03T03:34:27;5.00;;;2.22;;
75386;SDS011;63966;47.914;22.266;2023-04-03T03:37:31;4.88;;;2.20;;
75386;SDS011;63966;47.914;22.266;2023-04-03T03:40:34;4.47;;;1.80;;
75386;SDS011;63966;47.914;22.266;2023-04-03T03:43:38;4.90;;;2.03;;
75386;SDS011;63966;47.914;22.266;2023-04-03T03:46:42;4.53;;;1.75;;
75386;SDS011;63966;47.914;22.266;2023-04-03T03:49:46;4.90;;;2.03;;
75386;SDS011;63966;47.914;22.266;2023-04-03T03:52:51;4.85;;;1.98;;
75386;SDS011;63966;47.914;22.266;2023-04-03T03:55:54;4.90;;;2.00;;
75386;SDS011;63966;47.914;22.266;2023-04-03T03:59:00;5.07;;;1.63;;
75386;SDS011;63966;47.914;22.266;2023-04-03T04:02:05;8.93;;;1.90;;
75386;SDS011;63966;47.914;22.266;2023-04-03T04:05:09;6.68;;;2.28;;
75386;SDS011;63966;47.914;22.266;2023-04-03T04:08:13;7.60;;;2.67;;
75386;SDS011;63966;47.914;22.266;2023-04-03T04:11:17;3.83;;;1.73;;
75386;SDS011;63966;47.914;22.266;2023-04-03T04:14:22;3.87;;;1.83;;
75386;SDS011;63966;47.914;22.266;2023-04-03T04:17:26;3.67;;;1.70;;
75386;SDS011;63966;47.914;22.266;2023-04-03T04:20:30;5.35;;;1.92;;
75386;SDS011;63966;47.914;22.266;2023-04-03T04:23:34;4.93;;;2.17;;
75386;SDS011;63966;47.914;22.266;2023-04-03T04:26:38;4.43;;;1.98;;
75386;SDS011;63966;47.914;22.266;2023-04-03T04:29:44;4.60;;;1.73;;
75386;SDS011;63966;47.914;22.266;2023-04-03T04:32:48;3.38;;;1.52;;
75386;SDS011;63966;47.914;22.266;2023-04-03T04:35:52;3.85;;;1.80;;
75386;SDS011;63966;47.914;22.266;2023-04-03T04:38:56;5.40;;;1.50;;
75386;SDS011;63966;47.914;22.266;2023-04-03T04:42:02;3.28;;;1.40;;
75386;SDS011;63966;47.914;22.266;2023-04-03T04:45:07;4.50;;;1.90;;
75386;SDS011;63966;47.914;22.266;2023-04-03T04:48:13;4.70;;;1.63;;
75386;SDS011;63966;47.914;22.266;2023-04-03T04:51:17;2.72;;;1.40;;
75386;SDS011;63966;47.914;22.266;2023-04-03T04:54:20;3.00;;;1.38;;
75386;SDS011;63966;47.914;22.266;2023-04-03T04:57:25;2.65;;;1.30;;
75386;SDS011;63966;47.914;22.266;2023-04-03T05:00:29;4.33;;;1.50;;
75386;SDS011;63966;47.914;22.266;2023-04-03T05:03:32;4.88;;;1.60;;
75386;SDS011;63966;47.914;22.266;2023-04-03T05:06:36;2.80;;;1.27;;
75386;SDS011;63966;47.914;22.266;2023-04-03T05:09:44;3.20;;;1.40;;
75386;SDS011;63966;47.914;22.266;2023-04-03T05:12:49;2.55;;;1.50;;
75386;SDS011;63966;47.914;22.266;2023-04-03T05:15:53;3.47;;;1.40;;
75386;SDS011;63966;47.914;22.266;2023-04-03T05:18:57;3.22;;;1.40;;
75386;SDS011;63966;47.914;22.266;2023-04-03T05:22:02;3.00;;;1.40;;
75386;SDS011;63966;47.914;22.266;2023-04-03T05:25:06;3.25;;;1.00;;
75386;SDS011;63966;47.914;22.266;2023-04-03T05:28:11;3.85;;;1.40;;
75386;SDS011;63966;47.914;22.266;2023-04-03T05:31:15;2.73;;;1.30;;
75386;SDS011;63966;47.914;22.266;2023-04-03T05:34:19;4.00;;;1.50;;
75386;SDS011;63966;47.914;22.266;2023-04-03T05:37:25;1.85;;;1.20;;
75386;SDS011;63966;47.914;22.266;2023-04-03T05:40:29;2.42;;;1.25;;
75386;SDS011;63966;47.914;22.266;2023-04-03T05:43:32;2.25;;;1.42;;
75386;SDS011;63966;47.914;22.266;2023-04-03T05:46:37;1.47;;;1.13;;
75386;SDS011;63966;47.914;22.266;2023-04-03T05:49:43;2.85;;;1.20;;
75386;SDS011;63966;47.914;22.266;2023-04-03T05:52:50;3.22;;;1.83;;
75386;SDS011;63966;47.914;22.266;2023-04-03T05:55:55;2.70;;;1.40;;
75386;SDS011;63966;47.914;22.266;2023-04-03T05:58:59;1.73;;;1.20;;
75386;SDS011;63966;47.914;22.266;2023-04-03T06:02:03;2.10;;;1.20;;
75386;SDS011;63966;47.914;22.266;2023-04-03T06:05:08;2.35;;;1.45;;
75386;SDS011;63966;47.914;22.266;2023-04-03T06:08:13;2.65;;;1.30;;
75386;SDS011;63966;47.914;22.266;2023-04-03T06:11:17;3.15;;;1.40;;
75386;SDS011;63966;47.914;22.266;2023-04-03T06:14:21;2.40;;;1.60;;
75386;SDS011;63966;47.914;22.266;2023-04-03T06:17:24;2.63;;;1.20;;
75386;SDS011;63966;47.914;22.266;2023-04-03T06:20:29;2.83;;;1.40;;
75386;SDS011;63966;47.914;22.266;2023-04-03T06:23:33;2.13;;;1.30;;
75386;SDS011;63966;47.914;22.266;2023-04-03T06:26:37;2.88;;;1.20;;
75386;SDS011;63966;47.914;22.266;2023-04-03T06:29:40;2.67;;;1.50;;
75386;SDS011;63966;47.914;22.266;2023-04-03T06:32:44;2.20;;;1.37;;
75386;SDS011;63966;47.914;22.266;2023-04-03T06:35:47;3.95;;;1.42;;
75386;SDS011;63966;47.914;22.266;2023-04-03T06:38:51;2.28;;;1.10;;
75386;SDS011;63966;47.914;22.266;2023-04-03T06:41:54;2.10;;;1.40;;
75386;SDS011;63966;47.914;22.266;2023-04-03T06:45:09;3.03;;;1.55;;
75386;SDS011;63966;47.914;22.266;2023-04-03T06:48:13;1.90;;;1.30;;
75386;SDS011;63966;47.914;22.266;2023-04-03T06:51:18;2.60;;;1.30;;
75386;SDS011;63966;47.914;22.266;2023-04-03T06:54:29;4.43;;;1.38;;
75386;SDS011;63966;47.914;22.266;2023-04-03T06:57:33;2.28;;;1.40;;
75386;SDS011;63966;47.914;22.266;2023-04-03T07:00:37;3.45;;;1.60;;
75386;SDS011;63966;47.914;22.266;2023-04-03T07:03:41;2.37;;;1.10;;
75386;SDS011;63966;47.914;22.266;2023-04-03T07:06:46;2.00;;;1.30;;
75386;SDS011;63966;47.914;22.266;2023-04-03T07:09:53;2.38;;;1.30;;
75386;SDS011;63966;47.914;22.266;2023-04-03T07:13:01;1.75;;;1.30;;
75386;SDS011;63966;47.914;22.266;2023-04-03T07:16:08;4.60;;;1.67;;
75386;SDS011;63966;47.914;22.266;2023-04-03T07:19:19;2.00;;;1.33;;
75386;SDS011;63966;47.914;22.266;2023-04-03T07:22:25;2.90;;;1.30;;
75386;SDS011;63966;47.914;22.266;2023-04-03T07:25:30;2.00;;;1.50;;
75386;SDS011;63966;47.914;22.266;2023-04-03T07:28:33;2.10;;;1.40;;
75386;SDS011;63966;47.914;22.266;2023-04-03T07:31:39;3.85;;;1.60;;
75386;SDS011;63966;47.914;22.266;2023-04-03T07:34:43;2.37;;;1.47;;
75386;SDS011;63966;47.914;22.266;2023-04-03T07:37:47;2.33;;;1.20;;
75386;SDS011;63966;47.914;22.266;2023-04-03T07:40:51;2.28;;;1.50;;
75386;SDS011;63966;47.914;22.266;2023-04-03T07:43:56;1.75;;;1.23;;
75386;SDS011;63966;47.914;22.266;2023-04-03T07:46:59;3.42;;;1.40;;
75386;SDS011;63966;47.914;22.266;2023-04-03T07:50:03;1.77;;;1.20;;
75386;SDS011;63966;47.914;22.266;2023-04-03T07:53:07;2.75;;;1.20;;
75386;SDS011;63966;47.914;22.266;2023-04-03T07:56:11;3.15;;;1.30;;
75386;SDS011;63966;47.914;22.266;2023-04-03T07:59:15;2.40;;;1.48;;
75386;SDS011;63966;47.914;22.266;2023-04-03T08:02:18;3.03;;;1.70;;
75386;SDS011;63966;47.914;22.266;2023-04-03T08:05:22;1.60;;;1.10;;
75386;SDS011;63966;47.914;22.266;2023-04-03T08:08:25;3.05;;;1.20;;
75386;SDS011;63966;47.914;22.266;2023-04-03T08:11:31;3.60;;;1.70;;
75386;SDS011;63966;47.914;22.266;2023-04-03T08:14:35;1.98;;;1.23;;
75386;SDS011;63966;47.914;22.266;2023-04-03T08:17:39;2.55;;;1.45;;
75386;SDS011;63966;47.914;22.266;2023-04-03T08:20:42;2.80;;;1.20;;
75386;SDS011;63966;47.914;22.266;2023-04-03T08:23:49;2.70;;;1.30;;
75386;SDS011;63966;47.914;22.266;2023-04-03T08:26:53;2.17;;;1.20;;
75386;SDS011;63966;47.914;22.266;2023-04-03T08:29:57;2.47;;;1.10;;
75386;SDS011;63966;47.914;22.266;2023-04-03T08:33:02;1.83;;;1.30;;
75386;SDS011;63966;47.914;22.266;2023-04-03T08:36:14;1.93;;;1.10;;
75386;SDS011;63966;47.914;22.266;2023-04-03T08:39:20;1.90;;;0.90;;
75386;SDS011;63966;47.914;22.266;2023-04-03T08:45:46;4.18;;;1.20;;
75386;SDS011;63966;47.914;22.266;2023-04-03T08:48:53;1.80;;;0.93;;
75386;SDS011;63966;47.914;22.266;2023-04-03T08:52:01;3.03;;;1.10;;
75386;SDS011;63966;47.914;22.266;2023-04-03T08:55:23;1.80;;;0.98;;
75386;SDS011;63966;47.914;22.266;2023-04-03T08:58:29;5.70;;;0.90;;
75386;SDS011;63966;47.914;22.266;2023-04-03T09:01:40;3.22;;;1.00;;
75386;SDS011;63966;47.914;22.266;2023-04-03T09:04:45;4.03;;;1.25;;
75386;SDS011;63966;47.914;22.266;2023-04-03T09:08:31;4.87;;;1.30;;
75386;SDS011;63966;47.914;22.266;2023-04-03T09:11:23;1.88;;;1.00;;
75386;SDS011;63966;47.914;22.266;2023-04-03T09:18:16;2.53;;;1.10;;
75386;SDS011;63966;47.914;22.266;2023-04-03T09:21:34;2.15;;;1.17;;
75386;SDS011;63966;47.914;22.266;2023-04-03T09:24:42;1.20;;;0.87;;
75386;SDS011;63966;47.914;22.266;2023-04-03T09:27:52;3.45;;;1.20;;
75386;SDS011;63966;47.914;22.266;2023-04-03T09:30:56;1.90;;;1.33;;
75386;SDS011;63966;47.914;22.266;2023-04-03T09:34:01;2.33;;;0.90;;
75386;SDS011;63966;47.914;22.266;2023-04-03T09:37:10;1.65;;;1.10;;
75386;SDS011;63966;47.914;22.266;2023-04-03T09:40:42;2.13;;;1.10;;
75386;SDS011;63966;47.914;22.266;2023-04-03T09:43:55;2.22;;;0.80;;
75386;SDS011;63966;47.914;22.266;2023-04-03T09:46:58;1.92;;;1.10;;
75386;SDS011;63966;47.914;22.266;2023-04-03T09:50:20;2.20;;;1.05;;
75386;SDS011;63966;47.914;22.266;2023-04-03T09:56:49;2.37;;;0.93;;
75386;SDS011;63966;47.914;22.266;2023-04-03T09:59:57;2.20;;;1.00;;
75386;SDS011;63966;47.914;22.266;2023-04-03T10:03:22;2.42;;;0.85;;
75386;SDS011;63966;47.914;22.266;2023-04-03T10:06:34;1.40;;;0.80;;
75386;SDS011;63966;47.914;22.266;2023-04-03T10:09:55;2.95;;;0.90;;
75386;SDS011;63966;47.914;22.266;2023-04-03T10:13:03;3.23;;;1.10;;
75386;SDS011;63966;47.914;22.266;2023-04-03T10:16:44;2.13;;;1.00;;
75386;SDS011;63966;47.914;22.266;2023-04-03T10:23:14;2.28;;;0.80;;
75386;SDS011;63966;47.914;22.266;2023-04-03T11:02:28;6.18;;;1.10;;
75386;SDS011;63966;47.914;22.266;2023-04-03T11:05:48;3.87;;;1.10;;
75386;SDS011;63966;47.914;22.266;2023-04-03T11:15:54;3.42;;;1.20;;
75386;SDS011;63966;47.914;22.266;2023-04-03T11:19:18;2.30;;;1.17;;
75386;SDS011;63966;47.914;22.266;2023-04-03T11:25:34;6.23;;;1.30;;
75386;SDS011;63966;47.914;22.266;2023-04-03T11:28:41;2.60;;;1.52;;
75386;SDS011;63966;47.914;22.266;2023-04-03T11:32:29;3.80;;;1.10;;
75386;SDS011;63966;47.914;22.266;2023-04-03T11:35:32;2.78;;;1.10;;
75386;SDS011;63966;47.914;22.266;2023-04-03T11:38:38;7.30;;;1.07;;
75386;SDS011;63966;47.914;22.266;2023-04-03T11:41:46;7.77;;;1.23;;
75386;SDS011;63966;47.914;22.266;2023-04-03T11:45:15;2.65;;;1.08;;
75386;SDS011;63966;47.914;22.266;2023-04-03T11:51:38;10.73;;;1.05;;
75386;SDS011;63966;47.914;22.266;2023-04-03T11:54:45;2.57;;;1.17;;
75386;SDS011;63966;47.914;22.266;2023-04-03T12:01:12;5.10;;;1.25;;
75386;SDS011;63966;47.914;22.266;2023-04-03T12:05:24;7.18;;;1.40;;
75386;SDS011;63966;47.914;22.266;2023-04-03T12:08:43;3.38;;;1.10;;
75386;SDS011;63966;47.914;22.266;2023-04-03T12:11:48;4.30;;;1.20;;
75386;SDS011;63966;47.914;22.266;2023-04-03T12:14:53;7.33;;;2.10;;
75386;SDS011;63966;47.914;22.266;2023-04-03T12:17:57;5.18;;;1.10;;
75386;SDS011;63966;47.914;22.266;2023-04-03T12:21:01;5.63;;;1.40;;
75386;SDS011;63966;47.914;22.266;2023-04-03T12:27:23;4.63;;;1.27;;
75386;SDS011;63966;47.914;22.266;2023-04-03T12:30:45;8.93;;;1.27;;
75386;SDS011;63966;47.914;22.266;2023-04-03T12:44:12;3.23;;;1.40;;
75386;SDS011;63966;47.914;22.266;2023-04-03T12:47:36;4.00;;;1.37;;
75386;SDS011;63966;47.914;22.266;2023-04-03T12:50:43;4.43;;;1.50;;
75386;SDS011;63966;47.914;22.266;2023-04-03T12:53:49;3.92;;;1.30;;
75386;SDS011;63966;47.914;22.266;2023-04-03T13:00:30;15.43;;;3.00;;
75386;SDS011;63966;47.914;22.266;2023-04-03T13:03:40;4.50;;;1.80;;
75386;SDS011;63966;47.914;22.266;2023-04-03T13:06:47;5.32;;;1.45;;
75386;SDS011;63966;47.914;22.266;2023-04-03T13:09:56;4.25;;;1.52;;
75386;SDS011;63966;47.914;22.266;2023-04-03T13:13:09;8.82;;;1.67;;
75386;SDS011;63966;47.914;22.266;2023-04-03T13:16:16;6.60;;;1.50;;
75386;SDS011;63966;47.914;22.266;2023-04-03T13:19:20;6.60;;;2.00;;
75386;SDS011;63966;47.914;22.266;2023-04-03T13:22:33;6.97;;;1.80;;
75386;SDS011;63966;47.914;22.266;2023-04-03T13:25:45;7.25;;;1.73;;
75386;SDS011;63966;47.914;22.266;2023-04-03T13:28:50;11.43;;;1.90;;
75386;SDS011;63966;47.914;22.266;2023-04-03T13:31:55;10.67;;;1.97;;
75386;SDS011;63966;47.914;22.266;2023-04-03T13:35:00;7.93;;;1.60;;
75386;SDS011;63966;47.914;22.266;2023-04-03T13:41:32;3.25;;;1.38;;
75386;SDS011;63966;47.914;22.266;2023-04-03T13:44:38;7.63;;;1.67;;
75386;SDS011;63966;47.914;22.266;2023-04-03T13:47:42;4.90;;;1.60;;
75386;SDS011;63966;47.914;22.266;2023-04-03T13:51:01;5.73;;;1.67;;
75386;SDS011;63966;47.914;22.266;2023-04-03T13:54:16;9.50;;;1.70;;
75386;SDS011;63966;47.914;22.266;2023-04-03T13:57:25;4.28;;;1.52;;
75386;SDS011;63966;47.914;22.266;2023-04-03T14:03:44;7.10;;;1.70;;
75386;SDS011;63966;47.914;22.266;2023-04-03T14:06:48;9.02;;;2.05;;
75386;SDS011;63966;47.914;22.266;2023-04-03T14:09:52;8.20;;;1.70;;
75386;SDS011;63966;47.914;22.266;2023-04-03T14:12:56;9.85;;;1.90;;
75386;SDS011;63966;47.914;22.266;2023-04-03T14:15:59;3.92;;;1.40;;
75386;SDS011;63966;47.914;22.266;2023-04-03T14:19:19;3.97;;;1.80;;
75386;SDS011;63966;47.914;22.266;2023-04-03T14:22:41;11.70;;;1.95;;
75386;SDS011;63966;47.914;22.266;2023-04-03T14:25:44;6.07;;;2.03;;
75386;SDS011;63966;47.914;22.266;2023-04-03T14:28:50;3.13;;;1.33;;
75386;SDS011;63966;47.914;22.266;2023-04-03T14:31:55;6.80;;;2.20;;
75386;SDS011;63966;47.914;22.266;2023-04-03T14:35:16;5.83;;;1.80;;
75386;SDS011;63966;47.914;22.266;2023-04-03T14:38:23;8.45;;;1.88;;
75386;SDS011;63966;47.914;22.266;2023-04-03T14:41:28;10.43;;;2.33;;
75386;SDS011;63966;47.914;22.266;2023-04-03T14:44:31;7.00;;;2.53;;
75386;SDS011;63966;47.914;22.266;2023-04-03T14:47:37;10.77;;;4.20;;
75386;SDS011;63966;47.914;22.266;2023-04-03T14:50:49;9.30;;;3.10;;
75386;SDS011;63966;47.914;22.266;2023-04-03T14:54:10;7.35;;;3.50;;
75386;SDS011;63966;47.914;22.266;2023-04-03T14:57:17;7.05;;;3.90;;
75386;SDS011;63966;47.914;22.266;2023-04-03T15:00:21;6.65;;;2.90;;
75386;SDS011;63966;47.914;22.266;2023-04-03T15:03:25;8.07;;;2.00;;
75386;SDS011;63966;47.914;22.266;2023-04-03T15:06:29;4.13;;;1.90;;
75386;SDS011;63966;47.914;22.266;2023-04-03T15:09:34;5.65;;;2.38;;
75386;SDS011;63966;47.914;22.266;2023-04-03T15:12:41;6.70;;;2.13;;
75386;SDS011;63966;47.914;22.266;2023-04-03T15:15:45;8.00;;;1.92;;
75386;SDS011;63966;47.914;22.266;2023-04-03T15:18:49;5.32;;;1.40;;
75386;SDS011;63966;47.914;22.266;2023-04-03T15:21:53;8.43;;;1.80;;
75386;SDS011;63966;47.914;22.266;2023-04-03T15:24:57;4.72;;;1.90;;
75386;SDS011;63966;47.914;22.266;2023-04-03T15:28:00;8.88;;;2.30;;
75386;SDS011;63966;47.914;22.266;2023-04-03T15:31:04;8.80;;;3.30;;
75386;SDS011;63966;47.914;22.266;2023-04-03T15:34:08;5.55;;;2.50;;
75386;SDS011;63966;47.914;22.266;2023-04-03T15:37:12;6.43;;;2.20;;
75386;SDS011;63966;47.914;22.266;2023-04-03T15:40:16;4.93;;;2.22;;
75386;SDS011;63966;47.914;22.266;2023-04-03T15:43:19;6.63;;;2.10;;
75386;SDS011;63966;47.914;22.266;2023-04-03T15:46:23;10.10;;;3.75;;
75386;SDS011;63966;47.914;22.266;2023-04-03T15:49:27;4.38;;;1.80;;
75386;SDS011;63966;47.914;22.266;2023-04-03T15:52:32;4.60;;;1.90;;
75386;SDS011;63966;47.914;22.266;2023-04-03T15:55:37;8.38;;;3.85;;
75386;SDS011;63966;47.914;22.266;2023-04-03T15:58:41;7.80;;;2.67;;
75386;SDS011;63966;47.914;22.266;2023-04-03T16:01:45;5.82;;;2.70;;
75386;SDS011;63966;47.914;22.266;2023-04-03T16:04:49;7.10;;;2.63;;
75386;SDS011;63966;47.914;22.266;2023-04-03T16:07:53;4.73;;;2.10;;
75386;SDS011;63966;47.914;22.266;2023-04-03T16:10:57;8.52;;;2.22;;
75386;SDS011;63966;47.914;22.266;2023-04-03T16:14:01;6.95;;;2.80;;
75386;SDS011;63966;47.914;22.266;2023-04-03T16:17:05;7.30;;;2.38;;
75386;SDS011;63966;47.914;22.266;2023-04-03T16:20:11;6.63;;;3.05;;
75386;SDS011;63966;47.914;22.266;2023-04-03T16:23:15;8.90;;;3.03;;
75386;SDS011;63966;47.914;22.266;2023-04-03T16:26:19;6.18;;;2.65;;
75386;SDS011;63966;47.914;22.266;2023-04-03T16:29:23;8.70;;;3.30;;
75386;SDS011;63966;47.914;22.266;2023-04-03T16:32:27;4.40;;;2.20;;
75386;SDS011;63966;47.914;22.266;2023-04-03T16:35:32;5.85;;;2.42;;
75386;SDS011;63966;47.914;22.266;2023-04-03T16:38:36;5.37;;;2.00;;
75386;SDS011;63966;47.914;22.266;2023-04-03T16:41:39;6.57;;;2.10;;
75386;SDS011;63966;47.914;22.266;2023-04-03T16:44:43;4.38;;;1.90;;
75386;SDS011;63966;47.914;22.266;2023-04-03T16:47:47;5.97;;;1.92;;
75386;SDS011;63966;47.914;22.266;2023-04-03T16:50:50;4.23;;;1.70;;
75386;SDS011;63966;47.914;22.266;2023-04-03T16:53:56;4.53;;;1.85;;
75386;SDS011;63966;47.914;22.266;2023-04-03T16:56:59;6.30;;;2.45;;
75386;SDS011;63966;47.914;22.266;2023-04-03T17:00:03;5.45;;;2.00;;
75386;SDS011;63966;47.914;22.266;2023-04-03T17:03:09;5.22;;;2.17;;
75386;SDS011;63966;47.914;22.266;2023-04-03T17:06:17;5.10;;;2.22;;
75386;SDS011;63966;47.914;22.266;2023-04-03T17:09:22;5.10;;;2.28;;
75386;SDS011;63966;47.914;22.266;2023-04-03T17:12:25;9.15;;;1.80;;
75386;SDS011;63966;47.914;22.266;2023-04-03T17:15:29;7.72;;;2.53;;
75386;SDS011;63966;47.914;22.266;2023-04-03T17:18:32;5.90;;;2.20;;
75386;SDS011;63966;47.914;22.266;2023-04-03T17:21:37;10.80;;;3.05;;
75386;SDS011;63966;47.914;22.266;2023-04-03T17:24:40;7.77;;;3.17;;
75386;SDS011;63966;47.914;22.266;2023-04-03T17:27:44;6.47;;;2.35;;
75386;SDS011;63966;47.914;22.266;2023-04-03T17:30:47;5.82;;;2.65;;
75386;SDS011;63966;47.914;22.266;2023-04-03T17:33:51;5.75;;;1.98;;
75386;SDS011;63966;47.914;22.266;2023-04-03T17:36:54;12.43;;;2.73;;
75386;SDS011;63966;47.914;22.266;2023-04-03T17:39:58;7.13;;;2.50;;
75386;SDS011;63966;47.914;22.266;2023-04-03T17:43:02;3.83;;;1.88;;
75386;SDS011;63966;47.914;22.266;2023-04-03T17:46:07;10.07;;;2.60;;
75386;SDS011;63966;47.914;22.266;2023-04-03T17:49:11;8.87;;;3.43;;
75386;SDS011;63966;47.914;22.266;2023-04-03T17:52:16;5.88;;;2.70;;
75386;SDS011;63966;47.914;22.266;2023-04-03T17:55:20;4.57;;;2.28;;
75386;SDS011;63966;47.914;22.266;2023-04-03T17:58:24;9.65;;;3.72;;
75386;SDS011;63966;47.914;22.266;2023-04-03T18:01:29;5.25;;;2.60;;
75386;SDS011;63966;47.914;22.266;2023-04-03T18:04:35;7.00;;;2.50;;
75386;SDS011;63966;47.914;22.266;2023-04-03T18:07:38;5.50;;;2.67;;
75386;SDS011;63966;47.914;22.266;2023-04-03T18:10:43;4.33;;;1.80;;
75386;SDS011;63966;47.914;22.266;2023-04-03T18:13:47;8.43;;;3.10;;
75386;SDS011;63966;47.914;22.266;2023-04-03T18:16:51;6.95;;;3.10;;
75386;SDS011;63966;47.914;22.266;2023-04-03T18:19:55;9.85;;;3.60;;
75386;SDS011;63966;47.914;22.266;2023-04-03T18:22:58;8.93;;;3.23;;
75386;SDS011;63966;47.914;22.266;2023-04-03T18:26:02;7.28;;;2.92;;
75386;SDS011;63966;47.914;22.266;2023-04-03T18:29:08;9.02;;;2.90;;
75386;SDS011;63966;47.914;22.266;2023-04-03T18:32:14;8.60;;;3.53;;
75386;SDS011;63966;47.914;22.266;2023-04-03T18:35:20;7.70;;;3.63;;
75386;SDS011;63966;47.914;22.266;2023-04-03T18:38:24;8.88;;;3.40;;
75386;SDS011;63966;47.914;22.266;2023-04-03T18:41:29;6.63;;;2.47;;
75386;SDS011;63966;47.914;22.266;2023-04-03T18:44:35;9.57;;;3.58;;
75386;SDS011;63966;47.914;22.266;2023-04-03T18:47:39;8.65;;;3.40;;
75386;SDS011;63966;47.914;22.266;2023-04-03T18:50:43;11.02;;;3.78;;
75386;SDS011;63966;47.914;22.266;2023-04-03T18:53:47;8.65;;;3.22;;
75386;SDS011;63966;47.914;22.266;2023-04-03T18:56:51;7.67;;;3.80;;
75386;SDS011;63966;47.914;22.266;2023-04-03T18:59:55;7.95;;;3.45;;
75386;SDS011;63966;47.914;22.266;2023-04-03T19:02:59;8.20;;;3.10;;
75386;SDS011;63966;47.914;22.266;2023-04-03T19:06:03;7.82;;;3.38;;
75386;SDS011;63966;47.914;22.266;2023-04-03T19:09:07;5.60;;;2.60;;
75386;SDS011;63966;47.914;22.266;2023-04-03T19:12:10;6.45;;;2.88;;
75386;SDS011;63966;47.914;22.266;2023-04-03T19:15:15;5.93;;;2.90;;
75386;SDS011;63966;47.914;22.266;2023-04-03T19:18:20;7.55;;;2.83;;
75386;SDS011;63966;47.914;22.266;2023-04-03T19:21:24;8.10;;;3.33;;
75386;SDS011;63966;47.914;22.266;2023-04-03T19:24:28;5.30;;;2.20;;
75386;SDS011;63966;47.914;22.266;2023-04-03T19:27:32;6.97;;;2.85;;
75386;SDS011;63966;47.914;22.266;2023-04-03T19:30:36;7.05;;;2.80;;
75386;SDS011;63966;47.914;22.266;2023-04-03T19:33:41;6.47;;;2.70;;
75386;SDS011;63966;47.914;22.266;2023-04-03T19:36:45;7.68;;;3.58;;
75386;SDS011;63966;47.914;22.266;2023-04-03T19:39:49;6.28;;;2.83;;
75386;SDS011;63966;47.914;22.266;2023-04-03T19:42:53;7.37;;;3.03;;
75386;SDS011;63966;47.914;22.266;2023-04-03T19:45:57;8.10;;;3.92;;
75386;SDS011;63966;47.914;22.266;2023-04-03T19:49:01;7.93;;;2.97;;
75386;SDS011;63966;47.914;22.266;2023-04-03T19:52:05;8.75;;;3.40;;
75386;SDS011;63966;47.914;22.266;2023-04-03T19:55:09;6.70;;;2.60;;
75386;SDS011;63966;47.914;22.266;2023-04-03T19:58:12;6.63;;;2.90;;
75386;SDS011;63966;47.914;22.266;2023-04-03T20:01:16;7.13;;;2.95;;
75386;SDS011;63966;47.914;22.266;2023-04-03T20:04:20;4.70;;;2.50;;